Time;durP1;ratioP1;P1;durP2;ratioP2;P2;SDS_P1;SDS_P2;PMS_P1;PMS_P2;Temp;Humidity;BMP_temperature;BMP_pressure;BME280_temperature;BME280_humidity;BME280_pressure;Samples;Min_cycle;Max_cycle;Signal;HPM_P1;HPM_P2
2022/08/14 00:00:28;;;;;;;10.63;6.13;;;;;;;21.30;82.08;100801.81;5076295;28;20396;-79
2022/08/14 00:02:56;;;;;;;9.77;6.10;;;;;;;21.29;81.81;100809.28;5073244;28;20037;-77
2022/08/14 00:05:22;;;;;;;8.45;6.30;;;;;;;21.21;82.61;100801.03;5074077;28;20400;-79
2022/08/14 00:07:48;;;;;;;6.88;6.18;;;;;;;21.06;85.30;100803.81;5075603;28;20040;-80
2022/08/14 00:10:19;;;;;;;12.48;6.57;;;;;;;21.05;84.79;100799.31;5079677;28;20111;-79
2022/08/14 00:12:55;;;;;;;10.20;7.53;;;;;;;20.90;85.82;100799.28;5078166;28;20075;-79
2022/08/14 00:15:31;;;;;;;10.00;7.90;;;;;;;20.86;85.34;100785.97;5077997;28;20037;-79
2022/08/14 00:18:00;;;;;;;8.32;7.00;;;;;;;20.89;85.71;100782.78;5072735;28;20056;-80
2022/08/14 00:20:33;;;;;;;11.07;8.15;;;;;;;20.95;84.56;100784.78;5055298;28;20111;-80
2022/08/14 00:22:59;;;;;;;;;;;;;;;20.89;85.29;100782.78;5078234;28;20029;-78
2022/08/14 00:25:26;;;;;;;12.35;8.40;;;;;;;20.93;84.72;100786.91;5079677;28;20003;-79
2022/08/14 00:27:53;;;;;;;11.43;8.23;;;;;;;20.85;85.08;100784.22;5079292;28;20165;-79
2022/08/14 00:30:20;;;;;;;12.13;8.10;;;;;;;20.66;86.02;100775.38;5062425;28;20414;-79
2022/08/14 00:32:45;;;;;;;19.00;8.15;;;;;;;20.56;87.27;100778.41;5078130;28;20043;-79
2022/08/14 00:35:11;;;;;;;11.23;8.48;;;;;;;20.39;89.59;100777.69;5043061;28;20037;-81
2022/08/14 00:37:39;;;;;;;19.48;9.75;;;;;;;20.41;89.78;100774.72;5079481;28;20491;-80
2022/08/14 00:40:06;;;;;;;13.60;8.65;;;;;;;20.42;89.17;100767.25;5078096;28;20085;-79
2022/08/14 00:42:32;;;;;;;9.52;8.52;;;;;;;20.31;90.43;100771.34;5076051;28;20028;-79
2022/08/14 00:44:57;;;;;;;16.40;8.80;;;;;;;20.29;90.73;100757.63;5057755;28;20043;-78
2022/08/14 00:47:23;;;;;;;13.50;7.90;;;;;;;20.31;90.16;100758.28;5059313;28;20033;-79
2022/08/14 00:49:50;;;;;;;15.50;8.43;;;;;;;20.29;90.78;100754.00;5048340;28;20133;-78
2022/08/14 00:52:16;;;;;;;10.10;7.78;;;;;;;20.24;91.06;100748.97;5040864;28;20033;-80
2022/08/14 00:54:43;;;;;;;8.95;7.00;;;;;;;20.12;92.47;100751.34;5033009;28;20397;-79
2022/08/14 00:57:10;;;;;;;9.60;7.50;;;;;;;20.13;92.40;100755.84;5059454;28;20075;-79
2022/08/14 00:59:36;;;;;;;7.75;6.40;;;;;;;20.27;90.53;100754.19;5057687;28;20033;-79
2022/08/14 01:02:04;;;;;;;11.25;6.82;;;;;;;20.32;89.93;100746.13;5057179;28;20336;-78
2022/08/14 01:04:32;;;;;;;9.20;6.72;;;;;;;20.31;89.91;100744.38;5037770;28;20041;-78
2022/08/14 01:06:59;;;;;;;11.82;7.00;;;;;;;20.22;90.51;100751.09;5067219;28;20049;-78
2022/08/14 01:09:28;;;;;;;7.68;6.47;;;;;;;20.27;88.76;100745.84;5055583;28;20183;-78
2022/08/14 01:11:53;;;;;;;9.95;6.05;;;;;;;20.13;90.50;100743.88;5055922;28;20033;-80
2022/08/14 01:14:20;;;;;;;8.98;6.55;;;;;;;20.23;89.18;100732.47;5049398;28;20040;-79
2022/08/14 01:16:46;;;;;;;7.15;6.45;;;;;;;20.07;90.55;100726.03;5016757;28;20091;-80
2022/08/14 01:21:58;;;;;;;11.48;6.22;;;;;;;20.29;88.27;100713.13;5058183;28;20049;-78
2022/08/14 01:24:24;;;;;;;10.88;5.63;;;;;;;20.27;87.99;100718.03;5035025;28;20068;-80
2022/08/14 01:26:52;;;;;;;7.93;5.85;;;;;;;20.33;87.59;100710.81;5048174;28;20097;-79
2022/08/14 01:29:18;;;;;;;9.05;5.22;;;;;;;20.52;85.61;100709.44;5037860;28;20033;-80
2022/08/14 01:31:51;;;;;;;8.63;5.40;;;;;;;20.54;85.51;100707.31;5021919;28;20473;-79
2022/08/14 01:34:24;;;;;;;8.57;5.38;;;;;;;20.77;83.99;100695.25;5044963;28;20045;-78
2022/08/14 01:36:52;;;;;;;8.60;5.40;;;;;;;20.74;84.33;100696.50;5064879;28;20063;-77
2022/08/14 01:39:19;;;;;;;9.32;5.20;;;;;;;20.75;83.99;100701.88;5049780;28;20044;-78
2022/08/14 01:41:55;;;;;;;12.68;5.07;;;;;;;20.69;85.02;100699.88;5044644;28;20033;-78
2022/08/14 01:44:24;;;;;;;10.77;4.72;;;;;;;20.69;85.31;100699.00;5080714;28;20066;-79
2022/08/14 01:46:53;;;;;;;10.00;4.85;;;;;;;20.70;84.24;100689.59;5061673;28;20494;-79
2022/08/14 01:49:19;;;;;;;5.72;4.65;;;;;;;20.65;84.94;100689.31;5063930;28;20054;-78
2022/08/14 01:51:46;;;;;;;7.00;4.45;;;;;;;20.70;85.00;100689.59;5070787;28;20028;-80
2022/08/14 01:54:19;;;;;;;8.05;4.78;;;;;;;20.73;84.12;100697.56;5063694;28;20043;-81
2022/08/14 01:56:45;;;;;;;5.57;4.15;;;;;;;20.65;84.72;100686.53;5077684;28;20032;-80
2022/08/14 01:59:18;;;;;;;8.52;5.20;;;;;;;20.69;83.73;100707.34;5098176;28;20119;-77
2022/08/14 02:01:46;;;;;;;5.80;4.20;;;;;;;20.70;83.65;100701.59;5084414;28;20414;-79
2022/08/14 02:04:12;;;;;;;5.63;4.78;;;;;;;20.58;85.29;100691.97;5093967;28;20110;-79
2022/08/14 02:06:38;;;;;;;6.80;5.43;;;;;;;20.42;86.69;100704.13;5078485;28;20070;-78
2022/08/14 02:09:05;;;;;;;10.07;6.13;;;;;;;20.17;90.15;100703.53;5060251;28;20036;-80
2022/08/14 02:11:33;;;;;;;6.20;5.60;;;;;;;19.93;91.48;100697.13;5069411;28;20035;-79
2022/08/14 02:14:03;;;;;;;11.65;6.70;;;;;;;19.80;92.99;100702.47;5097181;28;20487;-80
2022/08/14 02:16:32;;;;;;;11.32;6.28;;;;;;;19.62;95.29;100697.19;5079731;28;20032;-78
2022/08/14 02:19:00;;;;;;;13.23;6.50;;;;;;;19.55;97.19;100687.88;5062634;28;20038;-78
2022/08/14 02:21:30;;;;;;;10.02;6.78;;;;;;;19.52;97.29;100691.88;5079519;28;20472;-79
2022/08/14 02:23:56;;;;;;;9.38;5.82;;;;;;;19.47;97.14;100688.78;5086367;28;20059;-80
2022/08/14 02:26:33;;;;;;;9.35;5.82;;;;;;;19.44;98.75;100697.47;5085800;28;20040;-78
2022/08/14 02:29:10;;;;;;;6.47;5.50;;;;;;;19.53;97.13;100699.16;5086691;28;20028;-80
2022/08/14 02:31:41;;;;;;;9.50;5.75;;;;;;;19.50;97.86;100695.88;5098191;28;20046;-79
2022/08/14 02:34:17;;;;;;;7.40;5.63;;;;;;;19.56;96.60;100690.47;5100257;28;20089;-79
2022/08/14 02:36:45;;;;;;;7.55;5.55;;;;;;;19.51;96.44;100687.34;5086290;28;20309;-79
2022/08/14 02:39:12;;;;;;;7.63;5.05;;;;;;;19.39;98.72;100692.47;5079863;28;20085;-80
2022/08/14 02:41:38;;;;;;;7.82;5.38;;;;;;;19.35;98.02;100690.22;5059781;28;20099;-80
2022/08/14 02:44:06;;;;;;;7.55;5.40;;;;;;;19.34;98.41;100691.31;5050725;28;20058;-81
2022/08/14 02:46:32;;;;;;;9.15;5.65;;;;;;;19.34;98.18;100685.75;5078400;28;20036;-80
2022/08/14 02:48:58;;;;;;;11.63;6.43;;;;;;;19.42;97.54;100685.69;5097573;28;20471;-79
2022/08/14 02:51:25;;;;;;;9.05;6.10;;;;;;;19.33;98.68;100682.09;5080162;28;20121;-79
2022/08/14 02:53:53;;;;;;;9.73;6.07;;;;;;;19.31;100.00;100691.66;5079883;28;20036;-80
2022/08/14 02:56:19;;;;;;;12.57;6.38;;;;;;;19.23;100.00;100679.56;5070424;28;20033;-79
2022/08/14 02:58:48;;;;;;;13.43;6.60;;;;;;;19.22;100.00;100676.97;5059025;28;20059;-80
2022/08/14 03:01:16;;;;;;;11.45;5.63;;;;;;;19.16;100.00;100677.69;5076604;28;20089;-80
2022/08/14 03:03:43;;;;;;;11.75;5.40;;;;;;;19.23;100.00;100679.56;5097455;28;20091;-79
2022/08/14 03:06:10;;;;;;;6.80;5.80;;;;;;;19.26;100.00;100673.63;5062870;28;20403;-79
2022/08/14 03:08:38;;;;;;;11.60;5.70;;;;;;;19.20;100.00;100677.16;5076584;28;20043;-80
2022/08/14 03:11:08;;;;;;;10.23;6.78;;;;;;;19.17;100.00;100680.28;5075168;28;20085;-79
2022/08/14 03:13:35;;;;;;;16.80;7.18;;;;;;;19.13;100.00;100661.41;5079054;28;20032;-81
2022/08/14 03:16:03;;;;;;;18.38;7.22;;;;;;;19.08;100.00;100661.94;5071693;28;20044;-80
2022/08/14 03:18:28;;;;;;;10.57;7.03;;;;;;;19.06;100.00;100666.81;5080322;28;20386;-79
2022/08/14 03:20:54;;;;;;;11.07;7.28;;;;;;;18.94;100.00;100657.16;5063503;28;20157;-81
2022/08/14 03:23:20;;;;;;;7.90;7.15;;;;;;;18.98;100.00;100659.41;5079179;28;20178;-79
2022/08/14 03:25:46;;;;;;;9.55;6.32;;;;;;;18.98;100.00;100659.41;5081365;28;20020;-78
2022/08/14 03:28:13;;;;;;;8.88;6.40;;;;;;;18.89;100.00;100658.59;5089168;28;20043;-79
2022/08/14 03:30:39;;;;;;;7.25;6.50;;;;;;;18.84;100.00;100658.28;5095277;28;20039;-80
2022/08/14 03:33:07;;;;;;;11.00;7.00;;;;;;;18.84;100.00;100660.16;5061160;28;20049;-79
2022/08/14 03:35:33;;;;;;;12.93;7.00;;;;;;;18.82;100.00;100656.66;5079391;28;20028;-79
2022/08/14 03:38:10;;;;;;;9.13;6.88;;;;;;;18.92;100.00;100657.34;5096729;28;20043;-80
2022/08/14 03:40:39;;;;;;;10.32;6.57;;;;;;;18.87;100.00;100665.34;5072307;28;20029;-79
2022/08/14 03:43:07;;;;;;;14.45;7.28;;;;;;;18.85;100.00;100665.53;5056106;28;20048;-80
2022/08/14 03:45:34;;;;;;;12.73;6.60;;;;;;;18.78;100.00;100666.41;5074814;28;20036;-80
2022/08/14 03:48:18;;;;;;;13.07;7.50;;;;;;;18.78;100.00;100658.94;5080070;28;20028;-81
2022/08/14 03:50:47;;;;;;;9.85;6.95;;;;;;;18.79;100.00;100668.13;5079299;28;20028;-80
2022/08/14 03:53:14;;;;;;;9.38;7.32;;;;;;;18.71;100.00;100655.19;5079591;28;20024;-80
2022/08/14 03:55:41;;;;;;;13.82;8.23;;;;;;;18.64;100.00;100662.47;5097625;28;20032;-78
2022/08/14 03:58:08;;;;;;;11.77;7.72;;;;;;;18.62;100.00;100662.66;5054475;28;20150;-80
2022/08/14 04:00:37;;;;;;;13.15;7.57;;;;;;;18.61;100.00;100648.97;5097669;28;20028;-80
2022/08/14 04:03:05;;;;;;;10.75;7.60;;;;;;;18.57;100.00;100653.16;5084018;28;20078;-80
2022/08/14 04:05:31;;;;;;;15.68;8.43;;;;;;;18.63;100.00;100656.06;5100520;28;20046;-78
2022/08/14 04:07:57;;;;;;;14.27;8.10;;;;;;;18.53;100.00;100647.97;5080984;28;20135;-79
2022/08/14 04:10:23;;;;;;;11.80;7.97;;;;;;;18.58;100.00;100649.31;5100658;28;20071;-80
2022/08/14 04:12:49;;;;;;;10.55;8.25;;;;;;;18.58;100.00;100650.19;5081779;28;20028;-79
2022/08/14 04:15:20;;;;;;;13.00;8.88;;;;;;;18.60;100.00;100650.88;5084161;28;20109;-81
2022/08/14 04:17:45;;;;;;;12.45;9.15;;;;;;;18.55;100.00;100650.56;5066788;28;20036;-79
2022/08/14 04:20:13;;;;;;;11.35;9.35;;;;;;;18.45;100.00;100638.81;5038681;28;20104;-77
2022/08/14 04:22:42;;;;;;;12.55;8.82;;;;;;;18.39;100.00;100643.16;5096670;28;20115;-80
2022/08/14 04:25:09;;;;;;;16.98;9.52;;;;;;;18.50;100.00;100647.47;5082625;28;20043;-78
2022/08/14 04:27:37;;;;;;;16.38;10.35;;;;;;;18.25;100.00;100639.22;5081073;28;20036;-79
2022/08/14 04:30:04;;;;;;;15.57;10.35;;;;;;;18.11;100.00;100632.47;5062699;28;20040;-79
2022/08/14 04:32:32;;;;;;;18.30;10.27;;;;;;;18.06;100.00;100640.47;5053502;28;20518;-78
2022/08/14 04:35:01;;;;;;;17.38;10.38;;;;;;;17.98;100.00;100634.94;5081764;28;20028;-79
2022/08/14 04:45:40;;;;;;;16.77;10.02;;;;;;;18.05;100.00;100624.84;5071094;28;20036;-80
2022/08/14 04:48:11;;;;;;;12.63;10.02;;;;;;;18.10;100.00;100624.34;5066360;28;20548;-80
2022/08/14 04:50:51;;;;;;;13.02;10.23;;;;;;;18.06;100.00;100614.66;5077678;28;20031;-81
2022/08/14 04:53:19;;;;;;;16.67;10.77;;;;;;;17.92;100.00;100619.00;5082128;28;20028;-79
2022/08/14 04:55:47;;;;;;;15.27;10.48;;;;;;;17.98;100.00;100615.53;5096744;28;20032;-75
2022/08/14 04:58:19;;;;;;;13.82;10.30;;;;;;;17.98;100.00;100618.31;5062632;28;20032;-76
2022/08/14 05:00:50;;;;;;;18.67;11.55;;;;;;;17.97;100.00;100616.56;5075302;28;20056;-76
2022/08/14 05:03:21;;;;;;;13.15;10.90;;;;;;;18.07;100.00;100619.16;5077963;28;20043;-76
2022/08/14 05:05:53;;;;;;;16.23;11.05;;;;;;;18.08;100.00;100604.25;5093928;28;20118;-77
2022/08/14 05:08:18;;;;;;;15.57;11.13;;;;;;;18.03;100.00;100595.63;5066701;28;20058;-76
2022/08/14 05:10:50;;;;;;;15.73;12.45;;;;;;;18.05;100.00;100605.47;5067263;28;20033;-75
2022/08/14 05:13:22;;;;;;;17.30;11.23;;;;;;;18.14;100.00;100596.09;5092903;28;20032;-76
2022/08/14 05:15:48;;;;;;;18.98;11.63;;;;;;;18.20;100.00;100605.63;5060529;28;20024;-76
2022/08/14 05:18:21;;;;;;;15.02;11.07;;;;;;;18.21;100.00;100603.72;5054764;28;20039;-77
2022/08/14 05:20:50;;;;;;;18.45;11.43;;;;;;;18.32;100.00;100608.88;5093858;28;20081;-77
2022/08/14 05:23:20;;;;;;;18.58;11.20;;;;;;;18.38;100.00;100608.13;5087657;28;20040;-77
2022/08/14 05:25:47;;;;;;;15.25;11.25;;;;;;;18.53;100.00;100602.75;5078020;28;20052;-76
2022/08/14 05:28:19;;;;;;;14.57;11.77;;;;;;;18.63;100.00;100608.06;5074861;28;20035;-77
2022/08/14 05:30:46;;;;;;;21.65;11.90;;;;;;;18.64;100.00;100602.31;5075742;28;20028;-77
2022/08/14 05:33:14;;;;;;;17.40;11.90;;;;;;;18.98;100.00;100603.03;5077054;28;20075;-76
2022/08/14 05:35:43;;;;;;;24.30;12.30;;;;;;;19.03;100.00;100601.44;5076240;28;20028;-77
2022/08/14 05:38:15;;;;;;;14.75;11.88;;;;;;;19.22;100.00;100604.81;5075331;28;20523;-76
2022/08/14 05:40:42;;;;;;;14.20;12.68;;;;;;;19.25;100.00;100607.19;5077510;28;20101;-77
2022/08/14 05:43:08;;;;;;;21.63;12.65;;;;;;;19.58;100.00;100601.41;5054569;28;20036;-77
2022/08/14 05:45:34;;;;;;;18.13;12.27;;;;;;;19.88;100.00;100602.34;5060669;28;20487;-77
2022/08/14 05:48:04;;;;;;;21.52;12.52;;;;;;;20.14;100.00;100601.06;5075006;28;20045;-76
2022/08/14 05:50:31;;;;;;;19.13;12.38;;;;;;;20.27;100.00;100600.38;5093768;28;20511;-77
2022/08/14 05:52:57;;;;;;;20.65;12.93;;;;;;;20.58;100.00;100605.75;5061195;28;20043;-77
2022/08/14 05:55:23;;;;;;;21.77;13.23;;;;;;;20.55;100.00;100598.63;5059492;28;20036;-77
2022/08/14 05:57:57;;;;;;;19.40;13.60;;;;;;;21.06;100.00;100592.22;5060647;28;20130;-77
2022/08/14 06:00:26;;;;;;;25.17;14.52;;;;;;;21.44;100.00;100593.91;5087089;28;20028;-76
2022/08/14 06:02:55;;;;;;;22.38;15.68;;;;;;;21.39;100.00;100599.22;5073364;28;20030;-77
2022/08/14 06:05:21;;;;;;;25.50;17.08;;;;;;;21.15;100.00;100595.72;5077188;28;20036;-77
2022/08/14 06:07:47;;;;;;;23.10;16.90;;;;;;;21.59;100.00;100602.22;5094426;28;20032;-77
2022/08/14 06:10:13;;;;;;;21.48;19.15;;;;;;;21.53;100.00;100595.53;5091821;28;20111;-77
2022/08/14 06:12:39;;;;;;;24.17;18.85;;;;;;;22.05;100.00;100598.94;5075294;28;20070;-76
2022/08/14 06:15:06;;;;;;;21.73;19.25;;;;;;;22.21;100.00;100600.56;5070706;28;20037;-77
2022/08/14 06:17:44;;;;;;;18.80;14.77;;;;;;;22.34;97.71;100595.06;5090929;28;20052;-77
2022/08/14 06:20:12;;;;;;;20.88;15.63;;;;;;;22.52;97.35;100596.47;5075096;28;20483;-77
2022/08/14 06:22:39;;;;;;;19.67;16.83;;;;;;;22.59;98.02;100594.56;5060487;28;20787;-76
2022/08/14 06:25:05;;;;;;;28.95;18.17;;;;;;;22.78;96.04;100597.69;5087590;28;20120;-77
2022/08/14 06:27:38;;;;;;;24.88;19.75;;;;;;;22.88;96.69;100596.19;5056306;28;20039;-77
2022/08/14 06:30:06;;;;;;;27.25;18.23;;;;;;;23.34;93.56;100593.78;5094241;28;20031;-76
2022/08/14 06:32:32;;;;;;;19.55;17.45;;;;;;;23.45;92.89;100598.75;5075569;28;20105;-77
2022/08/14 06:34:57;;;;;;;21.35;15.73;;;;;;;23.61;90.51;100598.34;5076643;28;20036;-77
2022/08/14 06:37:23;;;;;;;20.30;15.52;;;;;;;23.53;90.89;100595.75;5039049;28;20070;-76
2022/08/14 06:39:48;;;;;;;19.05;13.93;;;;;;;23.77;91.26;100591.44;5075309;28;20040;-78
2022/08/14 06:42:14;;;;;;;15.95;12.40;;;;;;;23.97;88.38;100602.66;5055739;28;20101;-76
2022/08/14 06:44:40;;;;;;;17.80;11.95;;;;;;;24.07;87.39;100595.75;5091911;28;20052;-76
2022/08/14 06:47:05;;;;;;;18.65;12.68;;;;;;;24.32;87.39;100585.59;5072308;28;20035;-77
2022/08/14 06:49:32;;;;;;;14.50;12.07;;;;;;;24.68;84.05;100595.44;5071850;28;20044;-76
2022/08/14 06:51:59;;;;;;;14.85;12.13;;;;;;;24.70;84.66;100582.06;5059600;28;20093;-77
2022/08/14 06:54:24;;;;;;;19.23;11.43;;;;;;;24.50;85.34;100578.47;5040140;28;20387;-76
2022/08/14 06:56:51;;;;;;;17.42;12.55;;;;;;;24.99;84.08;100576.97;5075633;28;20047;-76
2022/08/14 06:59:17;;;;;;;17.00;11.40;;;;;;;25.40;81.77;100581.28;5065040;28;20059;-77
2022/08/14 07:07:13;;;;;;;11.77;10.07;;;;;;;25.97;77.63;100569.19;5059254;28;20105;-76
2022/08/14 07:09:39;;;;;;;13.48;10.43;;;;;;;25.96;77.19;100567.47;5089480;28;20082;-77
2022/08/14 07:12:05;;;;;;;12.15;9.23;;;;;;;26.06;76.65;100570.59;5092613;28;20438;-77
2022/08/14 07:14:30;;;;;;;14.10;9.80;;;;;;;26.37;75.93;100566.81;5072274;28;20088;-76
2022/08/14 07:16:56;;;;;;;14.80;9.82;;;;;;;26.73;74.33;100569.88;5038827;28;20032;-77
2022/08/14 07:19:22;;;;;;;14.48;9.60;;;;;;;26.34;75.12;100563.63;5048413;28;20036;-76
2022/08/14 07:21:48;;;;;;;13.73;9.38;;;;;;;26.69;72.27;100566.66;5075251;28;20055;-76
2022/08/14 07:24:13;;;;;;;12.48;9.32;;;;;;;27.02;71.99;100559.75;5071621;28;20024;-76
2022/08/14 07:26:39;;;;;;;11.38;8.40;;;;;;;26.95;72.43;100568.25;5093877;28;20099;-78
2022/08/14 07:29:05;;;;;;;12.60;9.07;;;;;;;27.46;70.24;100556.75;5091792;28;20064;-76
2022/08/14 07:31:30;;;;;;;15.40;8.38;;;;;;;27.60;69.72;100571.47;5092478;28;20547;-76
2022/08/14 07:33:55;;;;;;;15.55;9.32;;;;;;;27.26;68.78;100563.50;5091032;28;20502;-77
2022/08/14 07:36:21;;;;;;;10.32;8.15;;;;;;;27.04;68.16;100559.50;5050544;28;20036;-78
2022/08/14 07:38:47;;;;;;;13.90;9.07;;;;;;;27.36;67.95;100568.59;5084064;28;20109;-77
2022/08/14 07:41:13;;;;;;;19.45;9.70;;;;;;;27.46;67.95;100557.59;5073025;28;20065;-78
2022/08/14 07:43:40;;;;;;;12.60;8.27;;;;;;;27.54;65.81;100559.22;5093389;28;20059;-78
2022/08/14 07:46:06;;;;;;;11.18;7.88;;;;;;;27.19;67.72;100557.13;5078815;28;20036;-77
2022/08/14 07:48:37;;;;;;;12.63;7.78;;;;;;;28.40;64.45;100556.81;5084420;28;20503;-76
2022/08/14 07:51:03;;;;;;;14.83;8.40;;;;;;;28.12;63.92;100553.91;5056792;28;20031;-77
2022/08/14 07:53:29;;;;;;;14.38;8.23;;;;;;;28.59;64.21;100551.88;5048827;28;20044;-78
2022/08/14 07:55:55;;;;;;;11.02;7.47;;;;;;;28.49;62.69;100536.72;5086887;28;20032;-77
2022/08/14 07:58:20;;;;;;;9.35;8.00;;;;;;;29.14;59.76;100553.28;5038890;28;20032;-78
2022/08/14 08:00:46;;;;;;;8.80;7.50;;;;;;;28.84;60.76;100552.69;5074627;28;20035;-77
2022/08/14 08:03:12;;;;;;;8.52;7.30;;;;;;;29.37;58.42;100554.31;5042542;28;20132;-77
2022/08/14 08:05:40;;;;;;;8.70;7.80;;;;;;;29.28;58.31;100556.69;5088175;28;20047;-78
2022/08/14 08:08:07;;;;;;;10.55;9.35;;;;;;;29.49;58.29;100559.88;5087597;28;20036;-76
2022/08/14 08:10:35;;;;;;;16.75;9.88;;;;;;;29.12;60.85;100552.69;5074508;28;20067;-78
2022/08/14 08:13:18;;;;;;;12.82;9.32;;;;;;;29.60;60.36;100556.13;5078506;28;20031;-77
2022/08/14 08:15:52;;;;;;;15.68;8.88;;;;;;;29.65;60.39;100561.84;5090555;28;20046;-77
2022/08/14 08:18:18;;;;;;;12.77;8.60;;;;;;;29.88;59.73;100562.84;5084548;28;20089;-77
2022/08/14 08:20:47;;;;;;;13.73;8.82;;;;;;;30.92;54.96;100555.53;5091565;28;20491;-77
2022/08/14 08:23:15;;;;;;;10.88;8.75;;;;;;;30.60;54.06;100552.63;5075839;28;20486;-80
2022/08/14 08:25:42;;;;;;;14.18;8.60;;;;;;;29.77;58.60;100560.94;5092131;28;20020;-77
2022/08/14 08:28:09;;;;;;;13.18;8.88;;;;;;;30.11;57.30;100563.75;5091096;28;20135;-77
2022/08/14 08:30:38;;;;;;;11.35;8.55;;;;;;;30.43;55.80;100552.66;5067089;28;20028;-77
2022/08/14 08:33:05;;;;;;;11.52;9.02;;;;;;;30.06;57.06;100550.41;5058261;28;20040;-76
2022/08/14 08:35:35;;;;;;;17.75;8.40;;;;;;;29.95;58.70;100549.38;5059696;28;20036;-77
2022/08/14 08:38:06;;;;;;;9.98;8.98;;;;;;;30.43;55.80;100547.00;5089296;28;20092;-76
2022/08/14 08:40:35;;;;;;;10.82;7.93;;;;;;;30.69;54.95;100544.53;5067253;28;20028;-77
2022/08/14 08:43:05;;;;;;;16.95;8.55;;;;;;;30.04;56.84;100541.31;5071995;28;20044;-77
2022/08/14 08:45:34;;;;;;;26.33;8.70;;;;;;;30.74;53.79;100547.41;5075039;28;20098;-80
2022/08/14 08:48:00;;;;;;;13.00;9.27;;;;;;;30.26;54.93;100546.19;5065339;28;20036;-79
2022/08/14 08:50:33;;;;;;;11.02;8.30;;;;;;;30.58;51.74;100543.53;5066517;28;20150;-80
2022/08/14 08:53:02;;;;;;;9.13;7.60;;;;;;;30.94;50.61;100544.84;5078096;28;20034;-81
2022/08/14 08:55:37;;;;;;;11.60;8.23;;;;;;;31.28;51.83;100547.47;5096172;28;20071;-82
2022/08/14 08:58:07;;;;;;;13.65;8.05;;;;;;;31.40;50.79;100546.47;5079723;28;20043;-81
2022/08/14 09:00:35;;;;;;;11.75;7.70;;;;;;;32.14;47.92;100548.56;5081756;28;20040;-81
2022/08/14 09:03:11;;;;;;;13.55;7.07;;;;;;;31.44;50.26;100539.16;5102901;28;20209;-81
2022/08/14 09:05:49;;;;;;;8.70;7.00;;;;;;;31.10;49.62;100528.91;5068394;28;20028;-81
2022/08/14 09:08:18;;;;;;;10.13;7.10;;;;;;;31.53;49.49;100526.22;5072940;28;20093;-82
2022/08/14 09:10:45;;;;;;;20.40;7.78;;;;;;;32.36;46.68;100541.88;5077866;28;20039;-81
2022/08/14 09:13:11;;;;;;;15.80;7.85;;;;;;;31.60;50.21;100535.38;5084191;28;20032;-81
2022/08/14 09:15:47;;;;;;;9.65;7.13;;;;;;;31.84;49.50;100534.97;5103933;28;20028;-80
2022/08/14 09:18:15;;;;;;;9.30;6.93;;;;;;;31.29;51.97;100528.53;5102209;28;20036;-81
2022/08/14 09:20:44;;;;;;;13.30;6.25;;;;;;;31.94;47.22;100526.53;5068326;28;20036;-81
2022/08/14 09:23:11;;;;;;;10.57;6.50;;;;;;;32.04;44.83;100517.25;5068296;28;20043;-80
2022/08/14 09:25:40;;;;;;;11.52;6.80;;;;;;;32.13;46.06;100512.00;5099863;28;20039;-81
2022/08/14 09:28:06;;;;;;;12.55;7.25;;;;;;;32.31;47.14;100511.53;5045701;28;20070;-81
2022/08/14 09:30:35;;;;;;;10.77;6.85;;;;;;;31.93;46.41;100507.03;5064676;28;20036;-79
2022/08/14 09:33:00;;;;;;;9.07;7.47;;;;;;;31.83;47.12;100496.47;5068584;28;20391;-80
2022/08/14 09:35:58;;;;;;;14.68;6.90;;;;;;;31.41;48.86;100500.06;5101193;28;20028;-80
2022/08/14 09:38:41;;;;;;;10.25;7.38;;;;;;;32.01;46.32;100495.19;5060627;28;20048;-80
2022/08/14 09:41:29;;;;;;;12.93;7.03;;;;;;;31.69;47.70;100499.75;5082969;28;20036;-81
2022/08/14 09:44:16;;;;;;;11.10;7.18;;;;;;;32.01;47.63;100500.84;5082292;28;20510;-80
2022/08/14 09:46:55;;;;;;;14.30;6.47;;;;;;;32.64;46.25;100495.25;5076968;28;20024;-80
2022/08/14 09:49:36;;;;;;;11.43;8.27;;;;;;;32.67;45.91;100494.69;5073986;28;20444;-81
2022/08/14 09:52:13;;;;;;;10.20;7.57;;;;;;;33.01;44.60;100490.53;5078431;28;20070;-81
2022/08/14 09:54:41;;;;;;;10.98;6.72;;;;;;;32.41;45.09;100479.53;5057973;28;20063;-82
2022/08/14 09:57:09;;;;;;;9.23;7.10;;;;;;;32.21;44.44;100480.31;5075576;28;20395;-80
2022/08/14 09:59:46;;;;;;;8.43;7.30;;;;;;;32.01;46.18;100486.69;5058458;28;20132;-77
2022/08/14 10:02:20;;;;;;;19.50;7.63;;;;;;;32.43;46.20;100466.81;5056405;28;20032;-81
2022/08/14 10:04:57;;;;;;;12.73;7.72;;;;;;;32.65;46.06;100468.63;5077819;28;20547;-82
2022/08/14 10:07:33;;;;;;;9.25;7.97;;;;;;;33.45;44.10;100473.00;5075166;28;20040;-79
2022/08/14 10:10:00;;;;;;;12.65;7.57;;;;;;;33.36;44.16;100469.88;5075378;28;20028;-79
2022/08/14 10:12:42;;;;;;;19.38;7.50;;;;;;;32.43;43.78;100465.94;5077324;28;20094;-79
2022/08/14 10:15:18;;;;;;;16.05;6.80;;;;;;;32.84;43.39;100460.41;5072911;28;20059;-79
2022/08/14 10:17:45;;;;;;;11.88;7.28;;;;;;;33.40;41.70;100458.81;5060281;28;20033;-80
2022/08/14 10:20:12;;;;;;;9.23;6.43;;;;;;;33.08;41.87;100457.06;5078277;28;20043;-80
2022/08/14 10:22:38;;;;;;;9.68;6.43;;;;;;;32.92;41.65;100464.69;5065144;28;20071;-79
2022/08/14 10:25:16;;;;;;;14.05;7.25;;;;;;;32.52;43.07;100452.09;5075680;28;20047;-80
2022/08/14 10:27:45;;;;;;;9.00;7.15;;;;;;;32.65;44.10;100456.41;5077378;28;20479;-78
2022/08/14 10:30:14;;;;;;;11.73;7.30;;;;;;;32.48;43.48;100445.28;5076796;28;20502;-80
2022/08/14 10:32:47;;;;;;;14.90;8.07;;;;;;;32.90;43.28;100449.94;5075431;28;20137;-78
2022/08/14 10:35:15;;;;;;;11.27;7.13;;;;;;;33.08;43.67;100443.72;5060399;28;21472;-80
2022/08/14 10:37:48;;;;;;;13.93;7.30;;;;;;;33.50;41.72;100439.78;5075768;28;20044;-79
2022/08/14 10:40:32;;;;;;;13.55;7.40;;;;;;;33.02;41.66;100439.19;5076570;28;20052;-80
2022/08/14 10:42:57;;;;;;;8.05;6.55;;;;;;;32.77;42.48;100435.16;5076714;28;20087;-80
2022/08/14 10:45:33;;;;;;;9.02;6.47;;;;;;;33.15;42.62;100424.44;5043094;28;20040;-80
2022/08/14 10:48:00;;;;;;;11.10;7.38;;;;;;;33.29;42.47;100418.25;5098478;28;20136;-80
2022/08/14 10:50:32;;;;;;;8.00;6.75;;;;;;;32.85;43.93;100408.25;5076917;28;20111;-80
2022/08/14 10:53:00;;;;;;;9.77;7.07;;;;;;;33.01;43.59;100399.72;5068494;28;20044;-80
2022/08/14 10:55:39;;;;;;;13.90;6.32;;;;;;;33.56;39.51;100422.75;5079926;28;20032;-79
2022/08/14 10:58:10;;;;;;;8.35;6.70;;;;;;;33.15;40.29;100413.06;5077320;28;20039;-79
2022/08/14 11:00:38;;;;;;;9.43;6.47;;;;;;;32.77;42.03;100406.81;5078918;28;20606;-79
2022/08/14 11:03:08;;;;;;;7.25;6.10;;;;;;;33.11;40.35;100423.31;5080004;28;20043;-80
2022/08/14 11:05:40;;;;;;;8.15;5.90;;;;;;;32.86;40.45;100409.09;5063437;28;20100;-79
2022/08/14 11:08:06;;;;;;;9.63;5.50;;;;;;;32.95;38.04;100413.06;5053638;28;20032;-78
2022/08/14 11:10:38;;;;;;;5.60;4.88;;;;;;;33.37;37.54;100414.81;5042932;28;20040;-78
2022/08/14 11:13:05;;;;;;;;;;;;;;;33.68;37.96;100411.91;5079352;28;20119;-79
2022/08/14 11:15:31;;;;;;;8.05;6.70;;;;;;;33.47;38.34;100413.97;5078186;28;20004;-79
2022/08/14 11:17:57;;;;;;;8.30;5.10;;;;;;;33.02;38.36;100412.81;5080797;28;20040;-78
2022/08/14 11:20:25;;;;;;;8.60;5.30;;;;;;;33.11;38.63;100411.13;5075526;28;20031;-78
2022/08/14 11:22:53;;;;;;;10.45;5.30;;;;;;;33.05;36.15;100415.91;5079602;28;20034;-78
2022/08/14 11:25:22;;;;;;;6.20;5.22;;;;;;;33.20;36.43;100414.25;5079726;28;20080;-79
2022/08/14 11:27:50;;;;;;;6.97;5.25;;;;;;;32.90;37.07;100413.91;5059901;28;20037;-80
2022/08/14 11:30:18;;;;;;;5.03;4.53;;;;;;;32.67;36.64;100406.78;5077026;28;20028;-78
2022/08/14 11:32:49;;;;;;;8.35;4.15;;;;;;;33.38;34.79;100407.16;5060095;28;20115;-80
2022/08/14 11:35:21;;;;;;;4.43;4.03;;;;;;;32.97;36.49;100393.78;5079565;28;20537;-78
2022/08/14 11:37:52;;;;;;;8.40;5.25;;;;;;;33.03;37.73;100391.81;5062957;28;20102;-78
2022/08/14 11:40:18;;;;;;;13.95;4.97;;;;;;;33.33;37.66;100393.81;5076988;28;20038;-80